Terminal Aerodrome Forecast
Issued by NWS

Home | Current Version | Previous Version | Text Only | Print | Product List | Glossary On
Versions: 1 2 3 4 5 6 7 8 9 10 11 12 13 14 15 16 17 18 19 20 21
000
FTUS44 KLZK 232248 AAA
TAFLLQ
TAF AMD
KLLQ 232248Z 2323/2418 21009KT P6SM VCSH SCT015 OVC050
      TEMPO 2323/2403 VRB15G30KT 2SM TSRA BR OVC015CB
     FM240400 VRB05KT P6SM VCSH BKN050 OVC100
     FM241200 03010KT P6SM VCTS OVC025CB=

USA.gov is the U.S. government's official web portal to all federal, state and local government web resources and services.